Wanakena, New York
Current Conditions -  °F | °C
As of 5:51 PM on Monday 20 Oct 2014 (Local Time) from KSLK Reporting Station
Overcast Overcast  
Wind Chill: 43°   Ceiling: 5000
Heat Index: 43°   Visibility: 10mi
Dew Point: 37°   Wind: 3mph
Humidity: 80%   Direction: 40°NE
Pressure: 29.87"   Gusts: NA
Location:  44.13°N, 74.92°W
Report Text: KSLK 202151Z AUTO 04003KT 10SM OVC050 06/03 A2987 RMK AO2 SLP128 T00610028 $
Loading
Personal Weather Stations






























Interactive Weather Map
Tropical Storm Tracking
New forecast layout! Learn more

10-Day Weather Forecast

Advertisements
Track Severe Weather on mobile